sensor_id;sensor_type;location;lat;lon;timestamp;P1;durP1;ratioP1;P2;durP2;ratioP2
5543;SDS011;2795;47.652;13.128;2023-09-30T00:02:27;22.13;;;8.00;;
5543;SDS011;2795;47.652;13.128;2023-09-30T00:04:54;12.67;;;6.50;;
5543;SDS011;2795;47.652;13.128;2023-09-30T00:07:21;14.20;;;6.70;;
5543;SDS011;2795;47.652;13.128;2023-09-30T00:09:48;14.03;;;5.97;;
5543;SDS011;2795;47.652;13.128;2023-09-30T00:12:15;28.77;;;9.43;;
5543;SDS011;2795;47.652;13.128;2023-09-30T00:14:42;19.03;;;7.30;;
5543;SDS011;2795;47.652;13.128;2023-09-30T00:17:09;19.37;;;7.60;;
5543;SDS011;2795;47.652;13.128;2023-09-30T00:19:36;19.97;;;7.10;;
5543;SDS011;2795;47.652;13.128;2023-09-30T00:22:03;16.97;;;7.17;;
5543;SDS011;2795;47.652;13.128;2023-09-30T00:24:30;20.43;;;7.80;;
5543;SDS011;2795;47.652;13.128;2023-09-30T00:26:57;18.57;;;7.10;;
5543;SDS011;2795;47.652;13.128;2023-09-30T00:29:23;20.87;;;7.90;;
5543;SDS011;2795;47.652;13.128;2023-09-30T00:31:50;17.40;;;7.10;;
5543;SDS011;2795;47.652;13.128;2023-09-30T00:34:17;17.10;;;7.07;;
5543;SDS011;2795;47.652;13.128;2023-09-30T00:36:43;17.93;;;7.40;;
5543;SDS011;2795;47.652;13.128;2023-09-30T00:39:10;21.00;;;7.93;;
5543;SDS011;2795;47.652;13.128;2023-09-30T00:41:40;18.83;;;6.77;;
5543;SDS011;2795;47.652;13.128;2023-09-30T00:44:07;20.13;;;7.97;;
5543;SDS011;2795;47.652;13.128;2023-09-30T00:46:37;31.27;;;8.40;;
5543;SDS011;2795;47.652;13.128;2023-09-30T00:49:04;19.70;;;8.10;;
5543;SDS011;2795;47.652;13.128;2023-09-30T00:51:31;16.83;;;6.80;;
5543;SDS011;2795;47.652;13.128;2023-09-30T00:54:00;29.27;;;9.03;;
5543;SDS011;2795;47.652;13.128;2023-09-30T00:56:27;20.23;;;7.50;;
5543;SDS011;2795;47.652;13.128;2023-09-30T00:58:54;19.10;;;7.27;;
5543;SDS011;2795;47.652;13.128;2023-09-30T01:01:22;20.70;;;8.37;;
5543;SDS011;2795;47.652;13.128;2023-09-30T01:03:49;16.10;;;6.70;;
5543;SDS011;2795;47.652;13.128;2023-09-30T01:06:16;27.03;;;8.40;;
5543;SDS011;2795;47.652;13.128;2023-09-30T01:08:43;25.13;;;8.97;;
5543;SDS011;2795;47.652;13.128;2023-09-30T01:11:10;16.10;;;6.37;;
5543;SDS011;2795;47.652;13.128;2023-09-30T01:13:37;21.03;;;7.80;;
5543;SDS011;2795;47.652;13.128;2023-09-30T01:16:08;24.13;;;8.30;;
5543;SDS011;2795;47.652;13.128;2023-09-30T01:18:39;29.30;;;8.77;;
5543;SDS011;2795;47.652;13.128;2023-09-30T01:21:09;19.13;;;6.43;;
5543;SDS011;2795;47.652;13.128;2023-09-30T01:23:36;23.07;;;7.50;;
5543;SDS011;2795;47.652;13.128;2023-09-30T01:26:03;23.90;;;8.40;;
5543;SDS011;2795;47.652;13.128;2023-09-30T01:28:31;19.60;;;7.13;;
5543;SDS011;2795;47.652;13.128;2023-09-30T01:30:58;27.80;;;8.43;;
5543;SDS011;2795;47.652;13.128;2023-09-30T01:33:25;18.87;;;6.93;;
5543;SDS011;2795;47.652;13.128;2023-09-30T01:35:52;15.90;;;6.40;;
5543;SDS011;2795;47.652;13.128;2023-09-30T01:38:18;28.37;;;9.50;;
5543;SDS011;2795;47.652;13.128;2023-09-30T01:40:46;21.43;;;8.80;;
5543;SDS011;2795;47.652;13.128;2023-09-30T01:43:13;20.57;;;8.60;;
5543;SDS011;2795;47.652;13.128;2023-09-30T01:45:40;15.70;;;6.83;;
5543;SDS011;2795;47.652;13.128;2023-09-30T01:48:08;21.03;;;7.23;;
5543;SDS011;2795;47.652;13.128;2023-09-30T01:50:38;24.83;;;8.67;;
5543;SDS011;2795;47.652;13.128;2023-09-30T01:53:05;22.90;;;9.07;;
5543;SDS011;2795;47.652;13.128;2023-09-30T01:55:33;21.70;;;9.00;;
5543;SDS011;2795;47.652;13.128;2023-09-30T01:58:00;26.10;;;9.40;;
5543;SDS011;2795;47.652;13.128;2023-09-30T02:00:27;27.57;;;9.90;;
5543;SDS011;2795;47.652;13.128;2023-09-30T02:02:55;21.33;;;8.53;;
5543;SDS011;2795;47.652;13.128;2023-09-30T02:05:22;20.50;;;8.37;;
5543;SDS011;2795;47.652;13.128;2023-09-30T02:07:50;20.83;;;8.73;;
5543;SDS011;2795;47.652;13.128;2023-09-30T02:10:17;21.03;;;8.30;;
5543;SDS011;2795;47.652;13.128;2023-09-30T02:12:45;19.73;;;8.37;;
5543;SDS011;2795;47.652;13.128;2023-09-30T02:15:12;21.03;;;8.70;;
5543;SDS011;2795;47.652;13.128;2023-09-30T02:17:40;20.97;;;9.17;;
5543;SDS011;2795;47.652;13.128;2023-09-30T02:20:12;17.23;;;7.40;;
5543;SDS011;2795;47.652;13.128;2023-09-30T02:22:42;19.03;;;8.60;;
5543;SDS011;2795;47.652;13.128;2023-09-30T02:25:12;19.97;;;8.27;;
5543;SDS011;2795;47.652;13.128;2023-09-30T02:27:40;25.80;;;9.23;;
5543;SDS011;2795;47.652;13.128;2023-09-30T02:30:08;17.93;;;7.57;;
5543;SDS011;2795;47.652;13.128;2023-09-30T02:32:38;17.70;;;7.63;;
5543;SDS011;2795;47.652;13.128;2023-09-30T02:35:06;26.43;;;8.87;;
5543;SDS011;2795;47.652;13.128;2023-09-30T02:37:33;21.03;;;8.40;;
5543;SDS011;2795;47.652;13.128;2023-09-30T02:40:06;24.87;;;8.80;;
5543;SDS011;2795;47.652;13.128;2023-09-30T02:42:39;23.80;;;9.20;;
5543;SDS011;2795;47.652;13.128;2023-09-30T02:45:07;26.30;;;8.50;;
5543;SDS011;2795;47.652;13.128;2023-09-30T02:47:35;23.23;;;9.07;;
5543;SDS011;2795;47.652;13.128;2023-09-30T02:50:04;27.27;;;9.80;;
5543;SDS011;2795;47.652;13.128;2023-09-30T02:52:32;26.20;;;10.13;;
5543;SDS011;2795;47.652;13.128;2023-09-30T02:54:59;22.90;;;8.83;;
5543;SDS011;2795;47.652;13.128;2023-09-30T02:57:26;22.30;;;8.43;;
5543;SDS011;2795;47.652;13.128;2023-09-30T02:59:54;21.03;;;8.87;;
5543;SDS011;2795;47.652;13.128;2023-09-30T03:02:22;28.53;;;11.30;;
5543;SDS011;2795;47.652;13.128;2023-09-30T03:04:50;19.80;;;8.30;;
5543;SDS011;2795;47.652;13.128;2023-09-30T03:07:19;21.37;;;8.40;;
5543;SDS011;2795;47.652;13.128;2023-09-30T03:09:46;26.57;;;9.47;;
5543;SDS011;2795;47.652;13.128;2023-09-30T03:12:13;29.50;;;10.83;;
5543;SDS011;2795;47.652;13.128;2023-09-30T03:14:40;26.07;;;8.60;;
5543;SDS011;2795;47.652;13.128;2023-09-30T03:17:07;21.53;;;9.20;;
5543;SDS011;2795;47.652;13.128;2023-09-30T03:19:38;23.23;;;8.90;;
5543;SDS011;2795;47.652;13.128;2023-09-30T03:22:05;19.10;;;7.97;;
5543;SDS011;2795;47.652;13.128;2023-09-30T03:24:38;23.27;;;9.30;;
5543;SDS011;2795;47.652;13.128;2023-09-30T03:27:05;18.50;;;8.70;;
5543;SDS011;2795;47.652;13.128;2023-09-30T03:29:34;25.37;;;9.30;;
5543;SDS011;2795;47.652;13.128;2023-09-30T03:32:02;21.20;;;8.27;;
5543;SDS011;2795;47.652;13.128;2023-09-30T03:34:29;15.27;;;6.83;;
5543;SDS011;2795;47.652;13.128;2023-09-30T03:36:56;28.10;;;9.37;;
5543;SDS011;2795;47.652;13.128;2023-09-30T03:39:25;22.07;;;9.23;;
5543;SDS011;2795;47.652;13.128;2023-09-30T03:41:54;20.90;;;8.53;;
5543;SDS011;2795;47.652;13.128;2023-09-30T03:44:22;17.40;;;8.20;;
5543;SDS011;2795;47.652;13.128;2023-09-30T03:46:50;20.10;;;8.70;;
5543;SDS011;2795;47.652;13.128;2023-09-30T03:49:18;20.17;;;8.53;;
5543;SDS011;2795;47.652;13.128;2023-09-30T03:51:46;18.50;;;9.40;;
5543;SDS011;2795;47.652;13.128;2023-09-30T03:54:13;20.73;;;9.00;;
5543;SDS011;2795;47.652;13.128;2023-09-30T03:56:39;21.80;;;9.67;;
5543;SDS011;2795;47.652;13.128;2023-09-30T03:59:07;33.93;;;10.03;;
5543;SDS011;2795;47.652;13.128;2023-09-30T04:01:35;21.87;;;9.07;;
5543;SDS011;2795;47.652;13.128;2023-09-30T04:04:07;24.50;;;9.77;;
5543;SDS011;2795;47.652;13.128;2023-09-30T04:06:36;27.80;;;10.80;;
5543;SDS011;2795;47.652;13.128;2023-09-30T04:09:05;23.80;;;9.13;;
5543;SDS011;2795;47.652;13.128;2023-09-30T04:11:38;24.07;;;10.10;;
5543;SDS011;2795;47.652;13.128;2023-09-30T04:14:06;22.60;;;10.00;;
5543;SDS011;2795;47.652;13.128;2023-09-30T04:16:34;19.83;;;8.13;;
5543;SDS011;2795;47.652;13.128;2023-09-30T04:19:01;17.13;;;7.77;;
5543;SDS011;2795;47.652;13.128;2023-09-30T04:21:28;16.00;;;7.30;;
5543;SDS011;2795;47.652;13.128;2023-09-30T04:23:56;26.43;;;9.63;;
5543;SDS011;2795;47.652;13.128;2023-09-30T04:26:24;21.03;;;8.27;;
5543;SDS011;2795;47.652;13.128;2023-09-30T04:28:51;20.87;;;8.03;;
5543;SDS011;2795;47.652;13.128;2023-09-30T04:31:20;18.00;;;7.73;;
5543;SDS011;2795;47.652;13.128;2023-09-30T04:33:48;19.10;;;9.17;;
5543;SDS011;2795;47.652;13.128;2023-09-30T04:36:17;20.53;;;9.30;;
5543;SDS011;2795;47.652;13.128;2023-09-30T04:38:44;30.17;;;10.57;;
5543;SDS011;2795;47.652;13.128;2023-09-30T04:41:11;20.90;;;8.33;;
5543;SDS011;2795;47.652;13.128;2023-09-30T04:43:37;19.13;;;7.60;;
5543;SDS011;2795;47.652;13.128;2023-09-30T04:46:05;18.33;;;7.27;;
5543;SDS011;2795;47.652;13.128;2023-09-30T04:48:33;25.80;;;10.03;;
5543;SDS011;2795;47.652;13.128;2023-09-30T04:51:00;21.83;;;9.17;;
5543;SDS011;2795;47.652;13.128;2023-09-30T04:53:31;19.13;;;7.70;;
5543;SDS011;2795;47.652;13.128;2023-09-30T04:56:00;27.20;;;8.60;;
5543;SDS011;2795;47.652;13.128;2023-09-30T04:58:27;23.90;;;8.17;;
5543;SDS011;2795;47.652;13.128;2023-09-30T05:00:56;22.03;;;9.07;;
5543;SDS011;2795;47.652;13.128;2023-09-30T05:03:23;27.23;;;10.03;;
5543;SDS011;2795;47.652;13.128;2023-09-30T05:05:51;18.97;;;8.63;;
5543;SDS011;2795;47.652;13.128;2023-09-30T05:08:20;29.03;;;11.07;;
5543;SDS011;2795;47.652;13.128;2023-09-30T05:10:46;29.67;;;10.30;;
5543;SDS011;2795;47.652;13.128;2023-09-30T05:13:14;23.77;;;8.87;;
5543;SDS011;2795;47.652;13.128;2023-09-30T05:15:41;31.20;;;10.67;;
5543;SDS011;2795;47.652;13.128;2023-09-30T05:18:08;25.27;;;10.63;;
5543;SDS011;2795;47.652;13.128;2023-09-30T05:20:35;25.77;;;9.67;;
5543;SDS011;2795;47.652;13.128;2023-09-30T05:23:04;35.03;;;11.87;;
5543;SDS011;2795;47.652;13.128;2023-09-30T05:25:33;33.37;;;11.90;;
5543;SDS011;2795;47.652;13.128;2023-09-30T05:28:00;23.13;;;10.13;;
5543;SDS011;2795;47.652;13.128;2023-09-30T05:30:27;31.57;;;10.70;;
5543;SDS011;2795;47.652;13.128;2023-09-30T05:32:54;41.80;;;12.33;;
5543;SDS011;2795;47.652;13.128;2023-09-30T05:35:21;35.57;;;12.30;;
5543;SDS011;2795;47.652;13.128;2023-09-30T05:37:49;25.00;;;11.37;;
5543;SDS011;2795;47.652;13.128;2023-09-30T05:40:19;24.97;;;10.10;;
5543;SDS011;2795;47.652;13.128;2023-09-30T05:42:49;24.03;;;11.00;;
5543;SDS011;2795;47.652;13.128;2023-09-30T05:45:16;25.63;;;11.90;;
5543;SDS011;2795;47.652;13.128;2023-09-30T05:47:43;31.40;;;12.83;;
5543;SDS011;2795;47.652;13.128;2023-09-30T05:50:11;18.97;;;8.67;;
5543;SDS011;2795;47.652;13.128;2023-09-30T05:52:43;29.90;;;10.73;;
5543;SDS011;2795;47.652;13.128;2023-09-30T05:55:13;25.33;;;10.53;;
5543;SDS011;2795;47.652;13.128;2023-09-30T05:57:42;24.90;;;9.53;;
5543;SDS011;2795;47.652;13.128;2023-09-30T06:00:11;18.73;;;8.97;;
5543;SDS011;2795;47.652;13.128;2023-09-30T06:02:41;21.70;;;9.77;;
5543;SDS011;2795;47.652;13.128;2023-09-30T06:05:09;26.70;;;10.57;;
5543;SDS011;2795;47.652;13.128;2023-09-30T06:07:37;27.87;;;11.23;;
5543;SDS011;2795;47.652;13.128;2023-09-30T06:10:04;33.57;;;11.00;;
5543;SDS011;2795;47.652;13.128;2023-09-30T06:12:33;19.60;;;10.20;;
5543;SDS011;2795;47.652;13.128;2023-09-30T06:15:01;22.77;;;11.00;;
5543;SDS011;2795;47.652;13.128;2023-09-30T06:17:28;24.97;;;10.53;;
5543;SDS011;2795;47.652;13.128;2023-09-30T06:19:55;28.43;;;11.70;;
5543;SDS011;2795;47.652;13.128;2023-09-30T06:22:22;24.63;;;10.47;;
5543;SDS011;2795;47.652;13.128;2023-09-30T06:24:49;24.90;;;10.40;;
5543;SDS011;2795;47.652;13.128;2023-09-30T06:27:16;30.23;;;11.50;;
5543;SDS011;2795;47.652;13.128;2023-09-30T06:29:43;23.53;;;10.30;;
5543;SDS011;2795;47.652;13.128;2023-09-30T06:32:09;26.73;;;11.50;;
5543;SDS011;2795;47.652;13.128;2023-09-30T06:34:36;30.03;;;10.33;;
5543;SDS011;2795;47.652;13.128;2023-09-30T06:37:03;23.97;;;10.07;;
5543;SDS011;2795;47.652;13.128;2023-09-30T06:39:30;26.90;;;9.97;;
5543;SDS011;2795;47.652;13.128;2023-09-30T06:41:57;26.13;;;10.10;;
5543;SDS011;2795;47.652;13.128;2023-09-30T06:44:23;22.67;;;9.60;;
5543;SDS011;2795;47.652;13.128;2023-09-30T06:46:51;30.30;;;10.23;;
5543;SDS011;2795;47.652;13.128;2023-09-30T06:49:18;30.03;;;11.03;;
5543;SDS011;2795;47.652;13.128;2023-09-30T06:51:44;25.20;;;11.10;;
5543;SDS011;2795;47.652;13.128;2023-09-30T06:54:11;25.87;;;10.77;;
5543;SDS011;2795;47.652;13.128;2023-09-30T06:56:38;25.23;;;10.70;;
5543;SDS011;2795;47.652;13.128;2023-09-30T06:59:04;31.17;;;12.10;;
5543;SDS011;2795;47.652;13.128;2023-09-30T07:01:32;33.90;;;11.70;;
5543;SDS011;2795;47.652;13.128;2023-09-30T07:03:59;25.17;;;9.90;;
5543;SDS011;2795;47.652;13.128;2023-09-30T07:06:26;25.10;;;10.40;;
5543;SDS011;2795;47.652;13.128;2023-09-30T07:08:53;31.83;;;12.33;;
5543;SDS011;2795;47.652;13.128;2023-09-30T07:11:26;26.07;;;10.67;;
5543;SDS011;2795;47.652;13.128;2023-09-30T07:13:55;35.37;;;12.00;;
5543;SDS011;2795;47.652;13.128;2023-09-30T07:16:22;29.20;;;11.70;;
5543;SDS011;2795;47.652;13.128;2023-09-30T07:18:48;28.93;;;12.27;;
5543;SDS011;2795;47.652;13.128;2023-09-30T07:21:16;34.37;;;12.50;;
5543;SDS011;2795;47.652;13.128;2023-09-30T07:23:43;28.20;;;10.43;;
5543;SDS011;2795;47.652;13.128;2023-09-30T07:26:10;27.10;;;11.63;;
5543;SDS011;2795;47.652;13.128;2023-09-30T07:28:37;28.77;;;10.20;;
5543;SDS011;2795;47.652;13.128;2023-09-30T07:31:03;27.40;;;10.83;;
5543;SDS011;2795;47.652;13.128;2023-09-30T07:33:30;22.43;;;9.50;;
5543;SDS011;2795;47.652;13.128;2023-09-30T07:35:57;22.00;;;9.93;;
5543;SDS011;2795;47.652;13.128;2023-09-30T07:38:24;24.83;;;10.03;;
5543;SDS011;2795;47.652;13.128;2023-09-30T07:40:51;28.27;;;10.80;;
5543;SDS011;2795;47.652;13.128;2023-09-30T07:43:18;35.83;;;10.50;;
5543;SDS011;2795;47.652;13.128;2023-09-30T07:45:46;34.90;;;11.07;;
5543;SDS011;2795;47.652;13.128;2023-09-30T07:48:13;23.20;;;9.60;;
5543;SDS011;2795;47.652;13.128;2023-09-30T07:50:40;30.40;;;10.50;;
5543;SDS011;2795;47.652;13.128;2023-09-30T07:53:08;32.73;;;9.30;;
5543;SDS011;2795;47.652;13.128;2023-09-30T07:55:35;22.10;;;9.43;;
5543;SDS011;2795;47.652;13.128;2023-09-30T07:58:02;27.57;;;9.93;;
5543;SDS011;2795;47.652;13.128;2023-09-30T08:00:29;30.77;;;11.20;;
5543;SDS011;2795;47.652;13.128;2023-09-30T08:02:56;42.73;;;12.13;;
5543;SDS011;2795;47.652;13.128;2023-09-30T08:05:23;27.20;;;10.33;;
5543;SDS011;2795;47.652;13.128;2023-09-30T08:07:49;34.80;;;11.57;;
5543;SDS011;2795;47.652;13.128;2023-09-30T08:10:16;33.33;;;11.40;;
5543;SDS011;2795;47.652;13.128;2023-09-30T08:12:43;30.87;;;10.20;;
5543;SDS011;2795;47.652;13.128;2023-09-30T08:15:12;26.97;;;9.83;;
5543;SDS011;2795;47.652;13.128;2023-09-30T08:17:39;30.87;;;11.57;;
5543;SDS011;2795;47.652;13.128;2023-09-30T08:20:07;29.33;;;10.50;;
5543;SDS011;2795;47.652;13.128;2023-09-30T08:22:37;30.80;;;11.27;;
5543;SDS011;2795;47.652;13.128;2023-09-30T08:25:04;27.50;;;9.90;;
5543;SDS011;2795;47.652;13.128;2023-09-30T08:27:32;24.13;;;9.63;;
5543;SDS011;2795;47.652;13.128;2023-09-30T08:29:59;31.23;;;11.23;;
5543;SDS011;2795;47.652;13.128;2023-09-30T08:32:26;27.37;;;10.77;;
5543;SDS011;2795;47.652;13.128;2023-09-30T08:34:52;35.40;;;10.93;;
5543;SDS011;2795;47.652;13.128;2023-09-30T08:37:20;32.37;;;11.60;;
5543;SDS011;2795;47.652;13.128;2023-09-30T08:39:47;29.47;;;10.70;;
5543;SDS011;2795;47.652;13.128;2023-09-30T08:42:14;26.23;;;9.87;;
5543;SDS011;2795;47.652;13.128;2023-09-30T08:44:42;32.33;;;11.27;;
5543;SDS011;2795;47.652;13.128;2023-09-30T08:47:09;26.10;;;10.00;;
5543;SDS011;2795;47.652;13.128;2023-09-30T08:49:40;28.50;;;10.23;;
5543;SDS011;2795;47.652;13.128;2023-09-30T08:52:09;27.90;;;9.67;;
5543;SDS011;2795;47.652;13.128;2023-09-30T08:54:37;26.47;;;9.60;;
5543;SDS011;2795;47.652;13.128;2023-09-30T08:57:05;27.47;;;12.53;;
5543;SDS011;2795;47.652;13.128;2023-09-30T08:59:31;26.50;;;9.87;;
5543;SDS011;2795;47.652;13.128;2023-09-30T09:02:02;35.60;;;11.13;;
5543;SDS011;2795;47.652;13.128;2023-09-30T09:04:28;30.50;;;10.33;;
5543;SDS011;2795;47.652;13.128;2023-09-30T09:06:56;31.73;;;11.30;;
5543;SDS011;2795;47.652;13.128;2023-09-30T09:09:23;35.73;;;10.60;;
5543;SDS011;2795;47.652;13.128;2023-09-30T09:11:50;32.57;;;10.67;;
5543;SDS011;2795;47.652;13.128;2023-09-30T09:14:17;23.67;;;9.33;;
5543;SDS011;2795;47.652;13.128;2023-09-30T09:16:55;35.60;;;12.00;;
5543;SDS011;2795;47.652;13.128;2023-09-30T09:19:23;35.23;;;11.57;;
5543;SDS011;2795;47.652;13.128;2023-09-30T09:22:00;27.93;;;9.97;;
5543;SDS011;2795;47.652;13.128;2023-09-30T09:29:33;26.83;;;10.10;;
5543;SDS011;2795;47.652;13.128;2023-09-30T09:32:07;29.47;;;11.27;;
5543;SDS011;2795;47.652;13.128;2023-09-30T09:34:41;31.47;;;10.57;;
5543;SDS011;2795;47.652;13.128;2023-09-30T09:37:17;32.57;;;10.97;;
5543;SDS011;2795;47.652;13.128;2023-09-30T09:39:50;27.70;;;9.63;;
5543;SDS011;2795;47.652;13.128;2023-09-30T09:42:29;28.37;;;9.70;;
5543;SDS011;2795;47.652;13.128;2023-09-30T09:45:03;38.70;;;11.40;;
5543;SDS011;2795;47.652;13.128;2023-09-30T09:47:32;28.83;;;9.70;;
5543;SDS011;2795;47.652;13.128;2023-09-30T09:49:59;37.03;;;11.77;;
5543;SDS011;2795;47.652;13.128;2023-09-30T09:52:29;35.90;;;12.00;;
5543;SDS011;2795;47.652;13.128;2023-09-30T09:54:56;38.83;;;10.90;;
5543;SDS011;2795;47.652;13.128;2023-09-30T09:57:24;43.77;;;12.33;;
5543;SDS011;2795;47.652;13.128;2023-09-30T09:59:52;33.37;;;11.37;;
5543;SDS011;2795;47.652;13.128;2023-09-30T10:02:22;35.37;;;11.23;;
5543;SDS011;2795;47.652;13.128;2023-09-30T10:04:49;35.70;;;11.73;;
5543;SDS011;2795;47.652;13.128;2023-09-30T10:07:23;34.93;;;11.87;;
5543;SDS011;2795;47.652;13.128;2023-09-30T10:09:53;30.93;;;11.27;;
5543;SDS011;2795;47.652;13.128;2023-09-30T10:12:20;34.77;;;11.43;;
5543;SDS011;2795;47.652;13.128;2023-09-30T10:14:51;31.90;;;11.53;;
5543;SDS011;2795;47.652;13.128;2023-09-30T10:17:18;34.93;;;12.10;;
5543;SDS011;2795;47.652;13.128;2023-09-30T10:20:04;33.37;;;11.60;;
5543;SDS011;2795;47.652;13.128;2023-09-30T10:22:36;41.37;;;13.13;;
5543;SDS011;2795;47.652;13.128;2023-09-30T10:25:32;43.37;;;14.07;;
5543;SDS011;2795;47.652;13.128;2023-09-30T10:31:09;41.63;;;12.80;;
5543;SDS011;2795;47.652;13.128;2023-09-30T10:36:30;32.00;;;11.60;;
5543;SDS011;2795;47.652;13.128;2023-09-30T10:39:05;32.47;;;11.43;;
5543;SDS011;2795;47.652;13.128;2023-09-30T10:46:54;49.33;;;13.30;;
5543;SDS011;2795;47.652;13.128;2023-09-30T10:51:50;34.37;;;11.47;;
5543;SDS011;2795;47.652;13.128;2023-09-30T10:54:24;33.70;;;11.70;;
5543;SDS011;2795;47.652;13.128;2023-09-30T10:56:52;30.13;;;11.00;;
5543;SDS011;2795;47.652;13.128;2023-09-30T10:59:22;55.63;;;15.10;;
5543;SDS011;2795;47.652;13.128;2023-09-30T11:01:50;32.90;;;13.00;;
5543;SDS011;2795;47.652;13.128;2023-09-30T11:04:18;37.00;;;12.20;;
5543;SDS011;2795;47.652;13.128;2023-09-30T11:06:46;31.17;;;11.33;;
5543;SDS011;2795;47.652;13.128;2023-09-30T11:09:17;33.53;;;12.00;;
5543;SDS011;2795;47.652;13.128;2023-09-30T11:11:51;32.00;;;10.80;;
5543;SDS011;2795;47.652;13.128;2023-09-30T11:14:30;43.40;;;14.60;;
5543;SDS011;2795;47.652;13.128;2023-09-30T11:16:58;31.77;;;11.23;;
5543;SDS011;2795;47.652;13.128;2023-09-30T11:19:37;36.13;;;11.60;;
5543;SDS011;2795;47.652;13.128;2023-09-30T11:22:13;35.87;;;11.73;;
5543;SDS011;2795;47.652;13.128;2023-09-30T11:24:40;39.67;;;12.13;;
5543;SDS011;2795;47.652;13.128;2023-09-30T11:27:06;42.53;;;13.47;;
5543;SDS011;2795;47.652;13.128;2023-09-30T11:29:33;37.00;;;12.17;;
5543;SDS011;2795;47.652;13.128;2023-09-30T11:32:00;36.03;;;11.90;;
5543;SDS011;2795;47.652;13.128;2023-09-30T11:34:36;33.53;;;12.40;;
5543;SDS011;2795;47.652;13.128;2023-09-30T11:37:04;37.60;;;13.40;;
5543;SDS011;2795;47.652;13.128;2023-09-30T11:39:32;30.33;;;11.47;;
5543;SDS011;2795;47.652;13.128;2023-09-30T11:42:00;33.70;;;12.00;;
5543;SDS011;2795;47.652;13.128;2023-09-30T11:44:27;31.27;;;11.17;;
5543;SDS011;2795;47.652;13.128;2023-09-30T11:46:57;37.57;;;12.97;;
5543;SDS011;2795;47.652;13.128;2023-09-30T11:49:28;34.53;;;10.70;;
5543;SDS011;2795;47.652;13.128;2023-09-30T11:51:56;28.83;;;11.00;;
5543;SDS011;2795;47.652;13.128;2023-09-30T11:54:29;36.83;;;12.50;;
5543;SDS011;2795;47.652;13.128;2023-09-30T11:56:57;42.83;;;13.13;;
5543;SDS011;2795;47.652;13.128;2023-09-30T11:59:25;34.73;;;12.67;;
5543;SDS011;2795;47.652;13.128;2023-09-30T12:01:52;37.37;;;13.13;;
5543;SDS011;2795;47.652;13.128;2023-09-30T12:04:39;31.67;;;12.33;;
5543;SDS011;2795;47.652;13.128;2023-09-30T12:07:06;31.53;;;11.50;;
5543;SDS011;2795;47.652;13.128;2023-09-30T12:09:35;38.80;;;12.13;;
5543;SDS011;2795;47.652;13.128;2023-09-30T12:12:07;33.50;;;11.77;;
5543;SDS011;2795;47.652;13.128;2023-09-30T12:14:38;32.80;;;11.70;;
5543;SDS011;2795;47.652;13.128;2023-09-30T12:17:05;39.67;;;12.60;;
5543;SDS011;2795;47.652;13.128;2023-09-30T12:19:32;30.47;;;11.17;;
5543;SDS011;2795;47.652;13.128;2023-09-30T12:21:59;33.43;;;11.40;;
5543;SDS011;2795;47.652;13.128;2023-09-30T12:24:25;34.73;;;12.03;;
5543;SDS011;2795;47.652;13.128;2023-09-30T12:26:53;39.70;;;12.03;;
5543;SDS011;2795;47.652;13.128;2023-09-30T12:29:21;38.23;;;12.40;;
5543;SDS011;2795;47.652;13.128;2023-09-30T12:31:49;34.63;;;12.30;;
5543;SDS011;2795;47.652;13.128;2023-09-30T12:34:20;31.10;;;10.90;;
5543;SDS011;2795;47.652;13.128;2023-09-30T12:36:49;33.53;;;11.27;;
5543;SDS011;2795;47.652;13.128;2023-09-30T12:39:16;36.00;;;12.13;;
5543;SDS011;2795;47.652;13.128;2023-09-30T12:41:43;38.33;;;11.73;;
5543;SDS011;2795;47.652;13.128;2023-09-30T12:44:12;27.30;;;10.40;;
5543;SDS011;2795;47.652;13.128;2023-09-30T12:46:39;32.40;;;10.80;;
5543;SDS011;2795;47.652;13.128;2023-09-30T12:49:07;33.90;;;10.70;;
5543;SDS011;2795;47.652;13.128;2023-09-30T12:51:34;36.47;;;12.80;;
5543;SDS011;2795;47.652;13.128;2023-09-30T12:54:01;37.27;;;12.57;;
5543;SDS011;2795;47.652;13.128;2023-09-30T12:56:28;30.97;;;11.37;;
5543;SDS011;2795;47.652;13.128;2023-09-30T12:58:59;35.80;;;11.50;;
5543;SDS011;2795;47.652;13.128;2023-09-30T13:01:26;33.43;;;10.93;;
5543;SDS011;2795;47.652;13.128;2023-09-30T13:03:55;37.43;;;11.47;;
5543;SDS011;2795;47.652;13.128;2023-09-30T13:06:22;39.47;;;12.33;;
5543;SDS011;2795;47.652;13.128;2023-09-30T13:08:49;39.43;;;12.60;;
5543;SDS011;2795;47.652;13.128;2023-09-30T13:11:15;41.07;;;12.63;;
5543;SDS011;2795;47.652;13.128;2023-09-30T13:13:42;29.70;;;11.60;;
5543;SDS011;2795;47.652;13.128;2023-09-30T13:16:10;33.23;;;11.30;;
5543;SDS011;2795;47.652;13.128;2023-09-30T13:18:38;32.93;;;11.70;;
5543;SDS011;2795;47.652;13.128;2023-09-30T13:21:05;30.70;;;10.83;;
5543;SDS011;2795;47.652;13.128;2023-09-30T13:23:33;38.70;;;11.83;;
5543;SDS011;2795;47.652;13.128;2023-09-30T13:26:00;41.67;;;11.93;;
5543;SDS011;2795;47.652;13.128;2023-09-30T13:28:28;36.10;;;12.27;;
5543;SDS011;2795;47.652;13.128;2023-09-30T13:30:55;36.43;;;11.80;;
5543;SDS011;2795;47.652;13.128;2023-09-30T13:33:22;31.97;;;11.00;;
5543;SDS011;2795;47.652;13.128;2023-09-30T13:35:49;29.60;;;9.90;;
5543;SDS011;2795;47.652;13.128;2023-09-30T13:38:15;40.63;;;10.50;;
5543;SDS011;2795;47.652;13.128;2023-09-30T13:40:42;31.23;;;10.43;;
5543;SDS011;2795;47.652;13.128;2023-09-30T13:43:10;32.37;;;11.17;;
5543;SDS011;2795;47.652;13.128;2023-09-30T13:45:37;36.10;;;12.60;;
5543;SDS011;2795;47.652;13.128;2023-09-30T13:48:04;39.43;;;13.13;;
5543;SDS011;2795;47.652;13.128;2023-09-30T13:50:33;30.53;;;11.30;;
5543;SDS011;2795;47.652;13.128;2023-09-30T13:53:00;36.83;;;11.60;;
5543;SDS011;2795;47.652;13.128;2023-09-30T13:55:28;33.73;;;11.90;;
5543;SDS011;2795;47.652;13.128;2023-09-30T13:57:55;35.13;;;11.63;;
5543;SDS011;2795;47.652;13.128;2023-09-30T14:00:22;36.50;;;12.70;;
5543;SDS011;2795;47.652;13.128;2023-09-30T14:02:49;36.67;;;12.57;;
5543;SDS011;2795;47.652;13.128;2023-09-30T14:05:16;45.67;;;14.10;;
5543;SDS011;2795;47.652;13.128;2023-09-30T14:07:43;38.47;;;11.03;;
5543;SDS011;2795;47.652;13.128;2023-09-30T14:10:10;32.67;;;11.40;;
5543;SDS011;2795;47.652;13.128;2023-09-30T14:12:37;42.63;;;13.40;;
5543;SDS011;2795;47.652;13.128;2023-09-30T14:15:06;37.60;;;12.90;;
5543;SDS011;2795;47.652;13.128;2023-09-30T14:17:33;34.00;;;11.87;;
5543;SDS011;2795;47.652;13.128;2023-09-30T14:20:02;33.70;;;11.40;;
5543;SDS011;2795;47.652;13.128;2023-09-30T14:22:32;34.70;;;12.37;;
5543;SDS011;2795;47.652;13.128;2023-09-30T14:24:59;36.23;;;11.47;;
5543;SDS011;2795;47.652;13.128;2023-09-30T14:27:26;39.77;;;12.83;;
5543;SDS011;2795;47.652;13.128;2023-09-30T14:29:53;37.10;;;11.60;;
5543;SDS011;2795;47.652;13.128;2023-09-30T14:32:19;29.73;;;10.83;;
5543;SDS011;2795;47.652;13.128;2023-09-30T14:34:46;39.03;;;13.10;;
5543;SDS011;2795;47.652;13.128;2023-09-30T14:37:13;34.70;;;12.10;;
5543;SDS011;2795;47.652;13.128;2023-09-30T14:39:40;36.67;;;11.50;;
5543;SDS011;2795;47.652;13.128;2023-09-30T14:42:07;27.93;;;10.00;;
5543;SDS011;2795;47.652;13.128;2023-09-30T14:44:34;35.60;;;11.73;;
5543;SDS011;2795;47.652;13.128;2023-09-30T14:47:01;38.80;;;12.67;;
5543;SDS011;2795;47.652;13.128;2023-09-30T14:49:28;35.93;;;13.30;;
5543;SDS011;2795;47.652;13.128;2023-09-30T14:51:57;41.73;;;13.50;;
5543;SDS011;2795;47.652;13.128;2023-09-30T14:54:24;42.60;;;14.30;;
5543;SDS011;2795;47.652;13.128;2023-09-30T14:56:51;42.87;;;13.47;;
5543;SDS011;2795;47.652;13.128;2023-09-30T14:59:18;38.83;;;11.90;;
5543;SDS011;2795;47.652;13.128;2023-09-30T15:01:46;34.40;;;11.80;;
5543;SDS011;2795;47.652;13.128;2023-09-30T15:04:13;28.63;;;10.07;;
5543;SDS011;2795;47.652;13.128;2023-09-30T15:06:42;30.23;;;10.57;;